JDI69 LPMA-LPPR
Flight info
| Callsign | JDI69 |
|---|---|
| Flight time | 1h 29m |
| Altitude | 34000 |
| Route | DEGUN DCT VABEM DCT ASMAR DCT DIRMA DCT ASMOV |
| Aircraft | MD11/H-SDE1E2E3FGHIJ2J3J4J5M1RWXY/LB1D1 |
Departure
| Time | 2026-05-05 18:41 |
|---|---|
| Airport | Cristiano Ronaldo International Airport (LPMA) |
Arrival
| Time | 2026-05-05 20:10 |
|---|---|
| Airport | Francisco de Sá Carneiro Airport (LPPR) |
| Time | Latitude | Longitude | Altitude | Speed | Heading |
|---|---|---|---|---|---|
| 2026-05-05 18:12 | 32.69619 | -16.77326 | 201 ft | 0 kts | 137° |
| 2026-05-05 18:28 | 32.69623 | -16.77331 | 184 ft | 2 kts | 137° |
| 2026-05-05 18:29 | 32.69634 | -16.77343 | 176 ft | 2 kts | 137° |
| 2026-05-05 18:29 | 32.69645 | -16.77355 | 182 ft | 2 kts | 137° |
| 2026-05-05 18:29 | 32.69656 | -16.77367 | 184 ft | 2 kts | 166° |
| 2026-05-05 18:29 | 32.69671 | -16.77370 | 184 ft | 2 kts | 198° |
| 2026-05-05 18:30 | 32.69685 | -16.77362 | 184 ft | 2 kts | 216° |
| 2026-05-05 18:30 | 32.69686 | -16.77361 | 201 ft | 0 kts | 216° |
| 2026-05-05 18:33 | 32.69685 | -16.77362 | 201 ft | 0 kts | 219° |
| 2026-05-05 18:33 | 32.69677 | -16.77374 | 184 ft | 5 kts | 227° |
| 2026-05-05 18:34 | 32.69651 | -16.77407 | 184 ft | 4 kts | 227° |
| 2026-05-05 18:34 | 32.69635 | -16.77427 | 184 ft | 4 kts | 227° |
| 2026-05-05 18:34 | 32.69609 | -16.77459 | 184 ft | 7 kts | 227° |
| 2026-05-05 18:34 | 32.69569 | -16.77510 | 184 ft | 8 kts | 226° |
| 2026-05-05 18:35 | 32.69531 | -16.77557 | 184 ft | 8 kts | 226° |
| 2026-05-05 18:35 | 32.69490 | -16.77608 | 195 ft | 8 kts | 226° |
| 2026-05-05 18:35 | 32.69454 | -16.77654 | 192 ft | 8 kts | 226° |
| 2026-05-05 18:35 | 32.69410 | -16.77709 | 197 ft | 8 kts | 226° |
| 2026-05-05 18:36 | 32.69374 | -16.77754 | 201 ft | 8 kts | 226° |
| 2026-05-05 18:36 | 32.69333 | -16.77804 | 197 ft | 9 kts | 226° |
| 2026-05-05 18:36 | 32.69297 | -16.77860 | 197 ft | 8 kts | 249° |
| 2026-05-05 18:36 | 32.69290 | -16.77925 | 184 ft | 8 kts | 266° |
| 2026-05-05 18:37 | 32.69286 | -16.77997 | 199 ft | 9 kts | 264° |
| 2026-05-05 18:37 | 32.69261 | -16.78057 | 198 ft | 8 kts | 233° |
| 2026-05-05 18:37 | 32.69219 | -16.78107 | 197 ft | 10 kts | 225° |
| 2026-05-05 18:37 | 32.69174 | -16.78161 | 198 ft | 8 kts | 225° |
| 2026-05-05 18:38 | 32.69134 | -16.78209 | 192 ft | 9 kts | 225° |
| 2026-05-05 18:38 | 32.69082 | -16.78270 | 184 ft | 12 kts | 225° |
| 2026-05-05 18:38 | 32.69023 | -16.78339 | 190 ft | 11 kts | 225° |
| 2026-05-05 18:38 | 32.68974 | -16.78380 | 197 ft | 8 kts | 204° |
| 2026-05-05 18:39 | 32.68920 | -16.78403 | 198 ft | 8 kts | 199° |
| 2026-05-05 18:39 | 32.68899 | -16.78426 | 190 ft | 1 kts | 244° |
| 2026-05-05 18:39 | 32.68900 | -16.78431 | 199 ft | 1 kts | 271° |
| 2026-05-05 18:39 | 32.68907 | -16.78439 | 196 ft | 2 kts | 309° |
| 2026-05-05 18:40 | 32.68926 | -16.78448 | 199 ft | 1 kts | 352° |
| 2026-05-05 18:40 | 32.68932 | -16.78442 | 196 ft | 2 kts | 27° |
| 2026-05-05 18:40 | 32.68953 | -16.78421 | 197 ft | 0 kts | 41° |
| 2026-05-05 18:41 | 32.68996 | -16.78374 | 187 ft | 36 kts | 43° |
| 2026-05-05 18:41 | 32.69385 | -16.77921 | 194 ft | 119 kts | 44° |
| 2026-05-05 18:41 | 32.70119 | -16.77049 | 382 ft | 164 kts | 43° |
| 2026-05-05 18:41 | 32.70920 | -16.76058 | 1125 ft | 175 kts | 47° |
| 2026-05-05 18:42 | 32.71591 | -16.74820 | 2017 ft | 182 kts | 70° |
| 2026-05-05 18:42 | 32.71709 | -16.73335 | 2893 ft | 185 kts | 95° |
| 2026-05-05 18:42 | 32.71315 | -16.71867 | 3630 ft | 188 kts | 109° |
| 2026-05-05 18:42 | 32.70755 | -16.70420 | 4131 ft | 204 kts | 111° |
| 2026-05-05 18:43 | 32.70138 | -16.68784 | 4280 ft | 236 kts | 112° |
| 2026-05-05 18:43 | 32.69444 | -16.66932 | 4620 ft | 253 kts | 113° |
| 2026-05-05 18:43 | 32.68720 | -16.65021 | 5282 ft | 253 kts | 111° |
| 2026-05-05 18:43 | 32.68012 | -16.63099 | 6063 ft | 257 kts | 110° |
| 2026-05-05 18:44 | 32.67314 | -16.61122 | 6829 ft | 263 kts | 110° |
| 2026-05-05 18:44 | 32.66590 | -16.59069 | 7408 ft | 277 kts | 112° |
| 2026-05-05 18:44 | 32.65985 | -16.56878 | 8114 ft | 282 kts | 98° |
| 2026-05-05 18:44 | 32.66018 | -16.54586 | 8994 ft | 277 kts | 73° |
| 2026-05-05 18:45 | 32.66897 | -16.52639 | 9880 ft | 271 kts | 45° |
| 2026-05-05 18:45 | 32.68291 | -16.51165 | 10577 ft | 273 kts | 38° |
| 2026-05-05 18:45 | 32.69759 | -16.49612 | 10918 ft | 292 kts | 40° |
| 2026-05-05 18:45 | 32.71310 | -16.47892 | 11117 ft | 318 kts | 42° |
| 2026-05-05 18:46 | 32.72938 | -16.45998 | 11474 ft | 336 kts | 42° |
| 2026-05-05 18:46 | 32.74632 | -16.43973 | 11815 ft | 355 kts | 42° |
| 2026-05-05 18:46 | 32.76406 | -16.41855 | 12354 ft | 366 kts | 43° |
| 2026-05-05 18:46 | 32.78240 | -16.39698 | 12915 ft | 377 kts | 41° |
| 2026-05-05 18:47 | 32.80133 | -16.37490 | 13495 ft | 384 kts | 42° |
| 2026-05-05 18:47 | 32.82079 | -16.35263 | 14049 ft | 390 kts | 37° |
| 2026-05-05 18:47 | 32.84287 | -16.33494 | 14649 ft | 389 kts | 26° |
| 2026-05-05 18:47 | 32.86697 | -16.32011 | 15155 ft | 393 kts | 23° |
| 2026-05-05 18:48 | 32.89162 | -16.30581 | 15810 ft | 395 kts | 24° |
| 2026-05-05 18:48 | 32.91643 | -16.29107 | 16304 ft | 401 kts | 24° |
| 2026-05-05 18:48 | 32.94131 | -16.27566 | 16870 ft | 405 kts | 25° |
| 2026-05-05 18:48 | 32.96604 | -16.25897 | 17382 ft | 411 kts | 29° |
| 2026-05-05 18:49 | 32.99025 | -16.24060 | 17934 ft | 415 kts | 31° |
| 2026-05-05 18:49 | 33.01450 | -16.22152 | 18437 ft | 420 kts | 31° |
| 2026-05-05 18:49 | 33.03863 | -16.20249 | 18911 ft | 423 kts | 31° |
| 2026-05-05 18:49 | 33.06333 | -16.18320 | 19380 ft | 426 kts | 30° |
| 2026-05-05 18:50 | 33.08825 | -16.16391 | 19836 ft | 429 kts | 30° |
| 2026-05-05 18:50 | 33.11338 | -16.14460 | 20280 ft | 431 kts | 30° |
| 2026-05-05 18:50 | 33.13871 | -16.12519 | 20730 ft | 434 kts | 30° |
| 2026-05-05 18:50 | 33.16425 | -16.10566 | 21206 ft | 437 kts | 29° |
| 2026-05-05 18:51 | 33.18990 | -16.08604 | 21667 ft | 440 kts | 29° |
| 2026-05-05 18:51 | 33.21582 | -16.06622 | 22112 ft | 443 kts | 29° |
| 2026-05-05 18:51 | 33.24149 | -16.04656 | 22581 ft | 446 kts | 29° |
| 2026-05-05 18:51 | 33.26774 | -16.02645 | 23050 ft | 450 kts | 29° |
| 2026-05-05 18:52 | 33.29418 | -16.00617 | 23521 ft | 453 kts | 29° |
| 2026-05-05 18:52 | 33.32079 | -15.98574 | 23937 ft | 457 kts | 29° |
| 2026-05-05 18:52 | 33.34762 | -15.96513 | 24352 ft | 460 kts | 29° |
| 2026-05-05 18:52 | 33.37457 | -15.94441 | 24773 ft | 463 kts | 30° |
| 2026-05-05 18:53 | 33.40184 | -15.92342 | 25067 ft | 470 kts | 30° |
| 2026-05-05 18:53 | 33.42971 | -15.90200 | 25178 ft | 482 kts | 30° |
| 2026-05-05 18:53 | 33.45823 | -15.88004 | 25330 ft | 493 kts | 30° |
| 2026-05-05 18:53 | 33.48721 | -15.85770 | 25713 ft | 498 kts | 30° |
| 2026-05-05 18:54 | 33.51592 | -15.83541 | 26133 ft | 502 kts | 30° |
| 2026-05-05 18:54 | 33.54508 | -15.81226 | 26560 ft | 505 kts | 31° |
| 2026-05-05 18:54 | 33.57445 | -15.78884 | 26973 ft | 509 kts | 31° |
| 2026-05-05 18:54 | 33.60411 | -15.76533 | 27352 ft | 512 kts | 30° |
| 2026-05-05 18:55 | 33.63398 | -15.74182 | 27720 ft | 515 kts | 30° |
| 2026-05-05 18:55 | 33.66406 | -15.71821 | 28071 ft | 518 kts | 30° |
| 2026-05-05 18:55 | 33.69433 | -15.69449 | 28386 ft | 521 kts | 30° |
| 2026-05-05 18:55 | 33.72487 | -15.67061 | 28703 ft | 524 kts | 30° |
| 2026-05-05 18:56 | 33.75513 | -15.64697 | 28929 ft | 528 kts | 30° |
| 2026-05-05 18:56 | 33.78577 | -15.62303 | 29202 ft | 530 kts | 30° |
| 2026-05-05 18:56 | 33.81672 | -15.59884 | 29483 ft | 531 kts | 30° |
| 2026-05-05 18:56 | 33.84773 | -15.57457 | 29831 ft | 531 kts | 30° |
| 2026-05-05 18:57 | 33.87867 | -15.55033 | 30193 ft | 531 kts | 30° |
| 2026-05-05 18:57 | 33.90963 | -15.52605 | 30487 ft | 531 kts | 30° |
| 2026-05-05 18:57 | 33.94052 | -15.50181 | 30797 ft | 530 kts | 30° |
| 2026-05-05 18:57 | 33.97140 | -15.47755 | 31107 ft | 529 kts | 30° |
| 2026-05-05 18:58 | 34.00213 | -15.45340 | 31408 ft | 528 kts | 30° |
| 2026-05-05 18:58 | 34.03282 | -15.42925 | 31793 ft | 524 kts | 30° |
| 2026-05-05 18:58 | 34.06289 | -15.40556 | 32127 ft | 523 kts | 30° |
| 2026-05-05 18:58 | 34.09327 | -15.38162 | 32410 ft | 522 kts | 30° |
| 2026-05-05 18:59 | 34.12365 | -15.35766 | 32689 ft | 521 kts | 30° |
| 2026-05-05 18:59 | 34.15391 | -15.33378 | 32954 ft | 520 kts | 30° |
| 2026-05-05 18:59 | 34.18423 | -15.30983 | 33211 ft | 519 kts | 30° |
| 2026-05-05 18:59 | 34.21442 | -15.28595 | 33456 ft | 519 kts | 30° |
| 2026-05-05 19:00 | 34.24455 | -15.26210 | 33702 ft | 518 kts | 30° |
| 2026-05-05 19:00 | 34.27470 | -15.23822 | 33937 ft | 518 kts | 30° |
| 2026-05-05 19:00 | 34.30440 | -15.21467 | 34118 ft | 517 kts | 30° |
| 2026-05-05 19:00 | 34.33442 | -15.19083 | 34134 ft | 516 kts | 30° |
| 2026-05-05 19:01 | 34.39421 | -15.14310 | 34138 ft | 515 kts | 30° |
| 2026-05-05 19:01 | 34.45417 | -15.09525 | 34140 ft | 515 kts | 30° |
| 2026-05-05 19:02 | 34.51408 | -15.04745 | 34143 ft | 515 kts | 30° |
| 2026-05-05 19:02 | 34.57357 | -14.99994 | 34160 ft | 515 kts | 30° |
| 2026-05-05 19:03 | 34.63341 | -14.95207 | 34146 ft | 515 kts | 31° |
| 2026-05-05 19:03 | 34.69322 | -14.90412 | 34145 ft | 515 kts | 30° |
| 2026-05-05 19:04 | 34.75309 | -14.85604 | 34148 ft | 515 kts | 30° |
| 2026-05-05 19:04 | 34.81288 | -14.80794 | 34148 ft | 515 kts | 30° |
| 2026-05-05 19:05 | 34.87229 | -14.76007 | 34155 ft | 516 kts | 31° |
| 2026-05-05 19:05 | 34.93209 | -14.71179 | 34151 ft | 516 kts | 31° |
| 2026-05-05 19:06 | 34.99186 | -14.66345 | 34157 ft | 516 kts | 31° |
| 2026-05-05 19:06 | 35.05162 | -14.61495 | 34157 ft | 516 kts | 31° |
| 2026-05-05 19:07 | 35.11085 | -14.56665 | 34157 ft | 516 kts | 31° |
| 2026-05-05 19:07 | 35.17048 | -14.51808 | 34157 ft | 515 kts | 31° |
| 2026-05-05 19:08 | 35.22995 | -14.46964 | 34154 ft | 515 kts | 31° |
| 2026-05-05 19:08 | 35.28964 | -14.42094 | 34154 ft | 515 kts | 31° |
| 2026-05-05 19:09 | 35.34882 | -14.37257 | 34154 ft | 515 kts | 31° |
| 2026-05-05 19:09 | 35.40844 | -14.32375 | 34165 ft | 516 kts | 31° |
| 2026-05-05 19:10 | 35.46816 | -14.27475 | 34156 ft | 516 kts | 31° |
| 2026-05-05 19:10 | 35.52783 | -14.22570 | 34157 ft | 516 kts | 31° |
| 2026-05-05 19:11 | 35.58733 | -14.17671 | 34157 ft | 516 kts | 31° |
| 2026-05-05 19:11 | 35.64644 | -14.12795 | 34156 ft | 515 kts | 31° |
| 2026-05-05 19:12 | 35.70599 | -14.07873 | 34165 ft | 517 kts | 31° |
| 2026-05-05 19:12 | 35.76564 | -14.02917 | 34150 ft | 517 kts | 31° |
| 2026-05-05 19:13 | 35.82517 | -13.97959 | 34148 ft | 517 kts | 31° |
| 2026-05-05 19:13 | 35.88439 | -13.93033 | 34150 ft | 517 kts | 31° |
| 2026-05-05 19:14 | 35.94402 | -13.88070 | 34167 ft | 517 kts | 31° |
| 2026-05-05 19:14 | 36.00377 | -13.83088 | 34163 ft | 517 kts | 31° |
| 2026-05-05 19:15 | 36.06332 | -13.78111 | 34160 ft | 517 kts | 31° |
| 2026-05-05 19:15 | 36.12244 | -13.73161 | 34159 ft | 517 kts | 31° |
| 2026-05-05 19:16 | 36.18205 | -13.68161 | 34154 ft | 517 kts | 31° |
| 2026-05-05 19:16 | 36.24157 | -13.63160 | 34159 ft | 519 kts | 31° |
| 2026-05-05 19:17 | 36.30126 | -13.58135 | 34154 ft | 519 kts | 31° |
| 2026-05-05 19:17 | 36.36057 | -13.53132 | 34155 ft | 519 kts | 31° |
| 2026-05-05 19:18 | 36.42029 | -13.48082 | 34157 ft | 519 kts | 31° |
| 2026-05-05 19:18 | 36.47973 | -13.43023 | 34180 ft | 518 kts | 31° |
| 2026-05-05 19:19 | 36.53932 | -13.37955 | 34158 ft | 519 kts | 31° |
| 2026-05-05 19:19 | 36.59860 | -13.32916 | 34157 ft | 519 kts | 31° |
| 2026-05-05 19:20 | 36.65822 | -13.27839 | 34156 ft | 519 kts | 31° |
| 2026-05-05 19:20 | 36.71786 | -13.22752 | 34157 ft | 519 kts | 31° |
| 2026-05-05 19:21 | 36.77739 | -13.17663 | 34163 ft | 519 kts | 31° |
| 2026-05-05 19:21 | 36.83697 | -13.12560 | 34149 ft | 519 kts | 31° |
| 2026-05-05 19:22 | 36.89601 | -13.07494 | 34160 ft | 519 kts | 31° |
| 2026-05-05 19:22 | 36.95552 | -13.02378 | 34152 ft | 519 kts | 31° |
| 2026-05-05 19:23 | 37.01496 | -12.97257 | 34176 ft | 519 kts | 31° |
| 2026-05-05 19:23 | 37.07441 | -12.92127 | 34165 ft | 519 kts | 31° |
| 2026-05-05 19:24 | 37.13345 | -12.87006 | 34166 ft | 519 kts | 31° |
| 2026-05-05 19:24 | 37.19281 | -12.81839 | 34167 ft | 519 kts | 31° |
| 2026-05-05 19:25 | 37.25218 | -12.76678 | 34145 ft | 520 kts | 31° |
| 2026-05-05 19:25 | 37.31164 | -12.71506 | 34153 ft | 521 kts | 31° |
| 2026-05-05 19:26 | 37.37104 | -12.66331 | 34156 ft | 521 kts | 31° |
| 2026-05-05 19:26 | 37.43018 | -12.61166 | 34154 ft | 521 kts | 31° |
| 2026-05-05 19:27 | 37.48970 | -12.55959 | 34156 ft | 521 kts | 31° |
| 2026-05-05 19:27 | 37.54917 | -12.50745 | 34160 ft | 522 kts | 31° |
| 2026-05-05 19:28 | 37.60887 | -12.45501 | 34152 ft | 523 kts | 31° |
| 2026-05-05 19:28 | 37.66816 | -12.40282 | 34154 ft | 523 kts | 31° |
| 2026-05-05 19:29 | 37.72785 | -12.35017 | 34155 ft | 523 kts | 31° |
| 2026-05-05 19:29 | 37.78746 | -12.29747 | 34150 ft | 523 kts | 31° |
| 2026-05-05 19:30 | 37.84693 | -12.24453 | 34151 ft | 523 kts | 31° |
| 2026-05-05 19:30 | 37.90648 | -12.19153 | 34151 ft | 523 kts | 31° |
| 2026-05-05 19:31 | 37.96604 | -12.13855 | 34146 ft | 523 kts | 31° |
| 2026-05-05 19:31 | 38.02517 | -12.08589 | 34146 ft | 523 kts | 31° |
| 2026-05-05 19:32 | 38.08474 | -12.03272 | 34141 ft | 524 kts | 31° |
| 2026-05-05 19:32 | 38.14435 | -11.97940 | 34142 ft | 524 kts | 31° |
| 2026-05-05 19:33 | 38.20363 | -11.92626 | 34143 ft | 525 kts | 31° |
| 2026-05-05 19:33 | 38.26323 | -11.87273 | 34143 ft | 525 kts | 31° |
| 2026-05-05 19:34 | 38.32283 | -11.81909 | 34146 ft | 524 kts | 31° |
| 2026-05-05 19:35 | 38.41213 | -11.73851 | 34140 ft | 525 kts | 31° |
| 2026-05-05 19:35 | 38.47171 | -11.68458 | 34140 ft | 525 kts | 31° |
| 2026-05-05 19:36 | 38.53070 | -11.63081 | 34142 ft | 525 kts | 31° |
| 2026-05-05 19:36 | 38.59003 | -11.57674 | 34137 ft | 523 kts | 31° |
| 2026-05-05 19:37 | 38.64937 | -11.52272 | 34138 ft | 523 kts | 31° |
| 2026-05-05 19:37 | 38.70863 | -11.46867 | 34137 ft | 523 kts | 31° |
| 2026-05-05 19:38 | 38.76753 | -11.41485 | 34135 ft | 523 kts | 31° |
| 2026-05-05 19:38 | 38.82660 | -11.36074 | 34140 ft | 520 kts | 32° |
| 2026-05-05 19:39 | 38.88533 | -11.30681 | 34131 ft | 519 kts | 31° |
| 2026-05-05 19:39 | 38.94404 | -11.25283 | 34131 ft | 520 kts | 31° |
| 2026-05-05 19:40 | 39.00238 | -11.19907 | 34128 ft | 520 kts | 31° |
| 2026-05-05 19:40 | 39.06108 | -11.14485 | 34136 ft | 519 kts | 32° |
| 2026-05-05 19:41 | 39.11933 | -11.09092 | 34134 ft | 516 kts | 32° |
| 2026-05-05 19:41 | 39.17754 | -11.03675 | 34127 ft | 516 kts | 32° |
| 2026-05-05 19:42 | 39.23573 | -10.98241 | 34129 ft | 516 kts | 32° |
| 2026-05-05 19:42 | 39.29354 | -10.92848 | 34131 ft | 516 kts | 32° |
| 2026-05-05 19:43 | 39.35160 | -10.87429 | 34124 ft | 514 kts | 32° |
| 2026-05-05 19:43 | 39.40948 | -10.82017 | 34121 ft | 513 kts | 32° |
| 2026-05-05 19:44 | 39.46693 | -10.76634 | 34120 ft | 514 kts | 32° |
| 2026-05-05 19:44 | 39.52476 | -10.71203 | 34119 ft | 514 kts | 32° |
| 2026-05-05 19:45 | 39.58236 | -10.65780 | 34119 ft | 509 kts | 32° |
| 2026-05-05 19:45 | 39.63963 | -10.60378 | 34116 ft | 509 kts | 32° |
| 2026-05-05 19:46 | 39.69645 | -10.55009 | 34114 ft | 509 kts | 32° |
| 2026-05-05 19:46 | 39.75379 | -10.49580 | 34113 ft | 510 kts | 32° |
| 2026-05-05 19:47 | 39.81102 | -10.44147 | 34120 ft | 509 kts | 32° |
| 2026-05-05 19:47 | 39.86810 | -10.38688 | 34114 ft | 509 kts | 33° |
| 2026-05-05 19:48 | 39.92521 | -10.33224 | 34114 ft | 509 kts | 32° |
| 2026-05-05 19:48 | 39.98194 | -10.27800 | 34114 ft | 509 kts | 32° |
| 2026-05-05 19:49 | 40.03904 | -10.22336 | 34115 ft | 509 kts | 32° |
| 2026-05-05 19:49 | 40.09568 | -10.16899 | 33247 ft | 498 kts | 32° |
| 2026-05-05 19:49 | 40.12337 | -10.14235 | 32575 ft | 491 kts | 32° |
| 2026-05-05 19:50 | 40.15088 | -10.11589 | 31974 ft | 492 kts | 32° |
| 2026-05-05 19:50 | 40.17844 | -10.08940 | 31373 ft | 492 kts | 32° |
| 2026-05-05 19:50 | 40.20595 | -10.06292 | 30789 ft | 492 kts | 32° |
| 2026-05-05 19:50 | 40.23359 | -10.03627 | 30205 ft | 492 kts | 32° |
| 2026-05-05 19:51 | 40.26077 | -10.01003 | 29516 ft | 493 kts | 32° |
| 2026-05-05 19:51 | 40.28829 | -9.98344 | 28767 ft | 493 kts | 32° |
| 2026-05-05 19:51 | 40.31594 | -9.95669 | 28041 ft | 494 kts | 33° |
| 2026-05-05 19:51 | 40.34358 | -9.92991 | 27353 ft | 495 kts | 33° |
| 2026-05-05 19:52 | 40.37136 | -9.90298 | 26642 ft | 496 kts | 33° |
| 2026-05-05 19:52 | 40.39899 | -9.87615 | 25958 ft | 493 kts | 33° |
| 2026-05-05 19:52 | 40.42609 | -9.84979 | 25280 ft | 488 kts | 33° |
| 2026-05-05 19:52 | 40.45351 | -9.82308 | 24586 ft | 483 kts | 33° |
| 2026-05-05 19:53 | 40.48001 | -9.79726 | 23925 ft | 478 kts | 33° |
| 2026-05-05 19:53 | 40.50653 | -9.77128 | 23207 ft | 473 kts | 33° |
| 2026-05-05 19:53 | 40.53265 | -9.74561 | 22470 ft | 466 kts | 33° |
| 2026-05-05 19:53 | 40.55846 | -9.72025 | 21808 ft | 461 kts | 33° |
| 2026-05-05 19:54 | 40.58404 | -9.69516 | 21168 ft | 456 kts | 33° |
| 2026-05-05 19:54 | 40.60937 | -9.67034 | 20518 ft | 452 kts | 33° |
| 2026-05-05 19:54 | 40.63441 | -9.64580 | 19874 ft | 447 kts | 33° |
| 2026-05-05 19:54 | 40.65927 | -9.62143 | 19255 ft | 443 kts | 33° |
| 2026-05-05 19:55 | 40.67558 | -9.60543 | 18846 ft | 440 kts | 33° |
| 2026-05-05 19:55 | 40.70783 | -9.57376 | 17979 ft | 434 kts | 33° |
| 2026-05-05 19:55 | 40.73189 | -9.55010 | 17331 ft | 428 kts | 33° |
| 2026-05-05 19:55 | 40.75557 | -9.52680 | 16705 ft | 422 kts | 33° |
| 2026-05-05 19:56 | 40.77884 | -9.50388 | 16101 ft | 417 kts | 33° |
| 2026-05-05 19:56 | 40.80197 | -9.48108 | 15529 ft | 412 kts | 33° |
| 2026-05-05 19:56 | 40.82473 | -9.45862 | 14944 ft | 407 kts | 33° |
| 2026-05-05 19:56 | 40.84729 | -9.43634 | 14357 ft | 402 kts | 33° |
| 2026-05-05 19:57 | 40.86950 | -9.41438 | 13773 ft | 397 kts | 33° |
| 2026-05-05 19:57 | 40.88408 | -9.39996 | 13352 ft | 394 kts | 33° |
| 2026-05-05 19:57 | 40.91290 | -9.37144 | 12569 ft | 388 kts | 33° |
| 2026-05-05 19:57 | 40.93434 | -9.35002 | 12152 ft | 386 kts | 36° |
| 2026-05-05 19:58 | 40.95382 | -9.32568 | 11694 ft | 388 kts | 48° |
| 2026-05-05 19:58 | 40.96708 | -9.29473 | 11292 ft | 389 kts | 69° |
| 2026-05-05 19:58 | 40.97178 | -9.26008 | 11120 ft | 376 kts | 84° |
| 2026-05-05 19:58 | 40.97199 | -9.22625 | 10970 ft | 359 kts | 89° |
| 2026-05-05 19:59 | 40.97099 | -9.19406 | 10825 ft | 343 kts | 90° |
| 2026-05-05 19:59 | 40.96994 | -9.16323 | 10697 ft | 328 kts | 89° |
| 2026-05-05 19:59 | 40.96914 | -9.13405 | 10478 ft | 317 kts | 88° |
| 2026-05-05 19:59 | 40.96856 | -9.10501 | 10020 ft | 315 kts | 88° |
| 2026-05-05 20:00 | 40.96814 | -9.07592 | 9418 ft | 317 kts | 87° |
| 2026-05-05 20:00 | 40.96782 | -9.04682 | 8860 ft | 317 kts | 87° |
| 2026-05-05 20:00 | 40.96753 | -9.01762 | 8305 ft | 317 kts | 87° |
| 2026-05-05 20:00 | 40.96725 | -8.98927 | 7806 ft | 299 kts | 87° |
| 2026-05-05 20:01 | 40.96697 | -8.96258 | 7357 ft | 284 kts | 87° |
| 2026-05-05 20:01 | 40.96673 | -8.93685 | 6927 ft | 277 kts | 87° |
| 2026-05-05 20:01 | 40.96652 | -8.91144 | 6444 ft | 274 kts | 86° |
| 2026-05-05 20:01 | 40.96631 | -8.88632 | 5990 ft | 273 kts | 86° |
| 2026-05-05 20:02 | 40.96610 | -8.86138 | 5563 ft | 270 kts | 87° |
| 2026-05-05 20:02 | 40.96589 | -8.83663 | 5180 ft | 268 kts | 86° |
| 2026-05-05 20:02 | 40.96567 | -8.81238 | 4807 ft | 266 kts | 87° |
| 2026-05-05 20:02 | 40.96544 | -8.78800 | 4417 ft | 264 kts | 86° |
| 2026-05-05 20:03 | 40.96521 | -8.76379 | 4071 ft | 262 kts | 85° |
| 2026-05-05 20:03 | 40.96602 | -8.73988 | 4001 ft | 259 kts | 78° |
| 2026-05-05 20:03 | 40.96884 | -8.71645 | 3992 ft | 257 kts | 75° |
| 2026-05-05 20:03 | 40.97217 | -8.69313 | 3986 ft | 259 kts | 75° |
| 2026-05-05 20:04 | 40.97556 | -8.67002 | 3981 ft | 245 kts | 75° |
| 2026-05-05 20:04 | 40.98007 | -8.64948 | 3966 ft | 225 kts | 60° |
| 2026-05-05 20:04 | 40.98889 | -8.63300 | 3650 ft | 216 kts | 37° |
| 2026-05-05 20:04 | 41.00158 | -8.62357 | 3375 ft | 206 kts | 14° |
| 2026-05-05 20:05 | 41.01508 | -8.62198 | 3082 ft | 189 kts | 352° |
| 2026-05-05 20:05 | 41.02778 | -8.62474 | 2991 ft | 185 kts | 349° |
| 2026-05-05 20:05 | 41.04054 | -8.62792 | 3000 ft | 187 kts | 348° |
| 2026-05-05 20:05 | 41.05333 | -8.63116 | 2991 ft | 187 kts | 348° |
| 2026-05-05 20:06 | 41.06532 | -8.63418 | 2915 ft | 163 kts | 348° |
| 2026-05-05 20:06 | 41.07614 | -8.63691 | 3000 ft | 156 kts | 349° |
| 2026-05-05 20:06 | 41.08663 | -8.63957 | 2983 ft | 155 kts | 348° |
| 2026-05-05 20:06 | 41.09721 | -8.64227 | 2989 ft | 155 kts | 348° |
| 2026-05-05 20:07 | 41.10792 | -8.64502 | 2726 ft | 156 kts | 349° |
| 2026-05-05 20:07 | 41.11845 | -8.64772 | 2382 ft | 154 kts | 347° |
| 2026-05-05 20:07 | 41.12891 | -8.65043 | 2102 ft | 154 kts | 347° |
| 2026-05-05 20:07 | 41.13943 | -8.65315 | 1820 ft | 154 kts | 347° |
| 2026-05-05 20:08 | 41.14994 | -8.65587 | 1742 ft | 155 kts | 348° |
| 2026-05-05 20:08 | 41.16049 | -8.65841 | 1540 ft | 154 kts | 348° |
| 2026-05-05 20:08 | 41.17089 | -8.66103 | 1326 ft | 152 kts | 348° |
| 2026-05-05 20:08 | 41.18127 | -8.66378 | 1159 ft | 152 kts | 348° |
| 2026-05-05 20:09 | 41.19161 | -8.66655 | 1025 ft | 152 kts | 351° |
| 2026-05-05 20:09 | 41.20191 | -8.66903 | 856 ft | 152 kts | 349° |
| 2026-05-05 20:09 | 41.21228 | -8.67188 | 734 ft | 151 kts | 348° |
| 2026-05-05 20:09 | 41.22252 | -8.67450 | 510 ft | 150 kts | 347° |
| 2026-05-05 20:10 | 41.23287 | -8.67722 | 294 ft | 153 kts | 348° |
| 2026-05-05 20:10 | 41.24207 | -8.67968 | 224 ft | 111 kts | 348° |
| 2026-05-05 20:10 | 41.24824 | -8.68132 | 214 ft | 73 kts | 348° |
| 2026-05-05 20:10 | 41.25207 | -8.68233 | 191 ft | 46 kts | 349° |
| 2026-05-05 20:11 | 41.25488 | -8.68307 | 183 ft | 36 kts | 349° |
| 2026-05-05 20:11 | 41.25619 | -8.68334 | 179 ft | 10 kts | 7° |
| 2026-05-05 20:11 | 41.25655 | -8.68303 | 178 ft | 6 kts | 47° |
| 2026-05-05 20:11 | 41.25669 | -8.68250 | 177 ft | 6 kts | 75° |
| 2026-05-05 20:12 | 41.25676 | -8.68197 | 177 ft | 5 kts | 88° |
| 2026-05-05 20:12 | 41.25676 | -8.68196 | 177 ft | 0 kts | 88° |
| 2026-05-05 20:12 | 41.25676 | -8.68181 | 177 ft | 4 kts | 91° |
| 2026-05-05 20:13 | 41.25663 | -8.68136 | 177 ft | 6 kts | 124° |
| 2026-05-05 20:13 | 41.25635 | -8.68114 | 178 ft | 4 kts | 163° |
| 2026-05-05 20:13 | 41.25593 | -8.68101 | 179 ft | 8 kts | 168° |
| 2026-05-05 20:13 | 41.25544 | -8.68088 | 180 ft | 7 kts | 168° |
| 2026-05-05 20:14 | 41.25489 | -8.68073 | 182 ft | 9 kts | 168° |
| 2026-05-05 20:14 | 41.25416 | -8.68052 | 185 ft | 12 kts | 168° |
| 2026-05-05 20:14 | 41.25329 | -8.68028 | 202 ft | 12 kts | 168° |
| 2026-05-05 20:14 | 41.25256 | -8.68008 | 199 ft | 10 kts | 168° |
| 2026-05-05 20:15 | 41.25185 | -8.67991 | 195 ft | 11 kts | 170° |
| 2026-05-05 20:15 | 41.25098 | -8.67970 | 205 ft | 14 kts | 168° |
| 2026-05-05 20:15 | 41.24998 | -8.67943 | 206 ft | 16 kts | 169° |
| 2026-05-05 20:15 | 41.24885 | -8.67910 | 209 ft | 16 kts | 162° |
| 2026-05-05 20:16 | 41.24786 | -8.67841 | 223 ft | 16 kts | 153° |
| 2026-05-05 20:16 | 41.24682 | -8.67805 | 217 ft | 16 kts | 169° |
| 2026-05-05 20:16 | 41.24576 | -8.67779 | 229 ft | 16 kts | 169° |
| 2026-05-05 20:16 | 41.24469 | -8.67752 | 229 ft | 16 kts | 169° |
| 2026-05-05 20:17 | 41.24362 | -8.67724 | 238 ft | 15 kts | 169° |
| 2026-05-05 20:17 | 41.24286 | -8.67677 | 240 ft | 10 kts | 135° |
| 2026-05-05 20:17 | 41.24245 | -8.67611 | 243 ft | 8 kts | 134° |
| 2026-05-05 20:17 | 41.24201 | -8.67575 | 245 ft | 8 kts | 161° |
| 2026-05-05 20:18 | 41.24140 | -8.67558 | 245 ft | 9 kts | 168° |
| 2026-05-05 20:18 | 41.24078 | -8.67542 | 245 ft | 11 kts | 168° |
| 2026-05-05 20:18 | 41.24004 | -8.67522 | 245 ft | 10 kts | 168° |
| 2026-05-05 20:18 | 41.23930 | -8.67502 | 245 ft | 12 kts | 168° |
| 2026-05-05 20:19 | 41.23855 | -8.67482 | 246 ft | 10 kts | 168° |
| 2026-05-05 20:19 | 41.23792 | -8.67465 | 246 ft | 9 kts | 168° |
| 2026-05-05 20:19 | 41.23734 | -8.67449 | 246 ft | 9 kts | 168° |
| 2026-05-05 20:19 | 41.23677 | -8.67439 | 245 ft | 8 kts | 185° |
| 2026-05-05 20:20 | 41.23630 | -8.67491 | 243 ft | 10 kts | 246° |
| 2026-05-05 20:20 | 41.23616 | -8.67562 | 241 ft | 7 kts | 257° |
| 2026-05-05 20:20 | 41.23610 | -8.67617 | 240 ft | 3 kts | 262° |
| 2026-05-05 20:22 | 41.23608 | -8.67639 | 240 ft | 7 kts | 262° |
| 2026-05-05 20:22 | 41.23590 | -8.67744 | 240 ft | 12 kts | 246° |
| 2026-05-05 20:22 | 41.23556 | -8.67824 | 241 ft | 8 kts | 239° |
| 2026-05-05 20:23 | 41.23545 | -8.67888 | 241 ft | 9 kts | 264° |
| 2026-05-05 20:23 | 41.23543 | -8.67980 | 238 ft | 10 kts | 276° |
| 2026-05-05 20:23 | 41.23587 | -8.68048 | 240 ft | 7 kts | 337° |
| 2026-05-05 20:23 | 41.23631 | -8.68062 | 237 ft | 8 kts | 347° |
| 2026-05-05 20:24 | 41.23693 | -8.68082 | 236 ft | 9 kts | 340° |
| 2026-05-05 20:24 | 41.23718 | -8.68135 | 232 ft | 10 kts | 284° |
| 2026-05-05 20:24 | 41.23716 | -8.68242 | 227 ft | 12 kts | 267° |
| 2026-05-05 20:24 | 41.23717 | -8.68319 | 226 ft | 13 kts | 282° |
| 2026-05-05 20:25 | 41.23749 | -8.68389 | 227 ft | 6 kts | 289° |
| 2026-05-05 20:25 | 41.23757 | -8.68446 | 225 ft | 3 kts | 273° |
| 2026-05-05 20:25 | 41.23754 | -8.68466 | 226 ft | 1 kts | 259° |
| 2026-05-05 20:25 | 41.23751 | -8.68487 | 227 ft | 3 kts | 259° |
| 2026-05-05 20:26 | 41.23750 | -8.68492 | 229 ft | 0 kts | 259° |